Time;durP1;ratioP1;P1;durP2;ratioP2;P2;SDS_P1;SDS_P2;PMS_P1;PMS_P2;Temp;Humidity;BMP_temperature;BMP_pressure;BME280_temperature;BME280_humidity;BME280_pressure;Samples;Min_cycle;Max_cycle;Signal;HPM_P1;HPM_P2
2023/02/19 00:01:34;;;;;;;7.33;1.93;;;9.40;97.30;;;;;;5124773;27;20173;-88
2023/02/19 00:04:02;;;;;;;2.55;1.70;;;9.40;97.30;;;;;;5113806;28;20205;-88
2023/02/19 00:06:30;;;;;;;2.55;2.35;;;9.40;97.30;;;;;;5101322;28;20499;-87
2023/02/19 00:08:55;;;;;;;1.95;1.60;;;9.40;97.30;;;;;;5121866;27;20260;-87
2023/02/19 00:11:24;;;;;;;2.45;2.25;;;9.40;97.30;;;;;;5103036;27;20275;-87
2023/02/19 00:13:52;;;;;;;1.75;1.25;;;9.40;97.30;;;;;;5117327;27;20246;-89
2023/02/19 00:16:35;;;;;;;3.00;2.80;;;9.40;97.30;;;;;;5130534;27;20496;-87
2023/02/19 00:19:03;;;;;;;1.10;1.00;;;9.40;97.30;;;;;;5108558;27;20208;-87
2023/02/19 00:21:29;;;;;;;1.40;1.30;;;9.50;97.30;;;;;;5117249;27;20219;-86
2023/02/19 00:23:58;;;;;;;2.30;2.10;;;9.50;97.30;;;;;;5115802;27;20209;-85
2023/02/19 00:26:25;;;;;;;2.10;1.95;;;9.40;97.30;;;;;;5117191;27;20827;-87
2023/02/19 00:28:52;;;;;;;3.25;2.20;;;9.40;97.30;;;;;;5117221;27;20216;-87
2023/02/19 00:31:24;;;;;;;2.40;2.00;;;9.40;97.30;;;;;;5135896;27;20246;-89
2023/02/19 00:33:53;;;;;;;3.30;1.87;;;9.40;97.30;;;;;;5133870;27;20430;-87
2023/02/19 00:36:19;;;;;;;1.30;1.20;;;9.40;97.30;;;;;;5106241;28;20412;-87
2023/02/19 00:38:45;;;;;;;4.37;2.73;;;9.40;97.30;;;;;;5114908;27;20447;-87
2023/02/19 00:41:18;;;;;;;2.45;2.30;;;9.40;97.30;;;;;;5113979;28;20393;-87
2023/02/19 00:43:51;;;;;;;2.00;1.60;;;9.40;97.30;;;;;;5127963;27;20190;-87
2023/02/19 00:46:20;;;;;;;4.40;2.00;;;9.40;97.30;;;;;;5103299;27;20462;-87
2023/02/19 00:48:46;;;;;;;1.70;1.60;;;9.40;97.30;;;;;;5116908;27;20216;-87
2023/02/19 00:51:12;;;;;;;2.80;1.70;;;9.40;97.30;;;;;;5103217;27;20413;-87
2023/02/19 00:53:38;;;;;;;2.45;1.85;;;9.40;97.30;;;;;;5114741;28;20251;-88
2023/02/19 00:56:04;;;;;;;2.25;2.10;;;9.30;97.30;;;;;;5101139;27;20211;-87
2023/02/19 00:58:29;;;;;;;2.10;1.95;;;9.30;97.30;;;;;;5119000;27;20336;-89
2023/02/19 01:00:55;;;;;;;3.70;3.30;;;9.20;97.30;;;;;;5115466;27;20715;-88
2023/02/19 01:03:23;;;;;;;1.30;1.20;;;9.20;97.30;;;;;;5115118;27;20229;-87
2023/02/19 01:05:50;;;;;;;7.77;3.77;;;9.20;97.30;;;;;;5116725;27;20200;-87
2023/02/19 01:08:15;;;;;;;4.40;1.65;;;9.20;97.30;;;;;;5126458;27;20227;-87
2023/02/19 01:10:41;;;;;;;2.80;2.50;;;9.10;97.30;;;;;;5135327;27;20454;-87
2023/02/19 01:13:06;;;;;;;2.23;1.60;;;9.10;97.30;;;;;;5116284;27;20272;-86
2023/02/19 01:15:33;;;;;;;3.20;2.45;;;9.10;97.30;;;;;;5116594;27;20185;-87
2023/02/19 01:17:58;;;;;;;7.95;2.55;;;9.10;97.30;;;;;;5118614;28;20261;-87
2023/02/19 01:20:25;;;;;;;1.40;1.30;;;9.10;97.30;;;;;;5116235;28;20409;-86
2023/02/19 01:22:51;;;;;;;5.80;2.90;;;9.00;97.30;;;;;;5114778;27;20166;-87
2023/02/19 01:25:16;;;;;;;3.25;3.05;;;9.00;97.30;;;;;;5107632;28;20203;-88
2023/02/19 01:27:42;;;;;;;3.55;2.15;;;9.00;97.30;;;;;;5118623;28;20640;-87
2023/02/19 01:30:08;;;;;;;2.60;1.83;;;8.90;97.30;;;;;;5105840;28;20181;-87
2023/02/19 01:32:33;;;;;;;6.40;2.00;;;8.90;97.30;;;;;;5116390;28;20188;-89
2023/02/19 01:34:59;;;;;;;2.00;1.90;;;8.90;97.30;;;;;;5116852;28;21167;-88
2023/02/19 01:37:24;;;;;;;2.25;2.05;;;8.90;97.30;;;;;;5112864;28;20185;-88
2023/02/19 01:39:50;;;;;;;2.17;1.13;;;8.90;97.30;;;;;;5127402;28;20211;-89
2023/02/19 01:42:16;;;;;;;1.45;1.35;;;8.80;97.30;;;;;;5123601;28;20202;-88
2023/02/19 01:44:41;;;;;;;5.03;3.57;;;8.80;97.30;;;;;;5120627;28;20177;-88
2023/02/19 01:47:06;;;;;;;1.40;1.30;;;8.80;97.30;;;;;;5119307;28;20285;-88
2023/02/19 01:49:38;;;;;;;2.45;1.70;;;8.80;97.30;;;;;;5120024;28;20166;-88
2023/02/19 01:52:13;;;;;;;2.83;2.00;;;8.80;97.30;;;;;;5118752;28;20217;-89
2023/02/19 01:54:41;;;;;;;1.80;1.70;;;8.80;97.30;;;;;;5118373;28;20620;-88
2023/02/19 01:57:12;;;;;;;8.40;1.90;;;8.80;97.30;;;;;;5105065;28;20444;-88
2023/02/19 01:59:38;;;;;;;4.03;2.30;;;8.80;97.30;;;;;;5106026;28;20409;-87
2023/02/19 02:02:04;;;;;;;3.00;1.80;;;8.80;97.30;;;;;;5118712;28;20406;-88
2023/02/19 02:04:30;;;;;;;8.33;2.07;;;8.80;97.30;;;;;;5118659;28;20487;-88
2023/02/19 02:06:57;;;;;;;1.90;1.80;;;8.80;97.30;;;;;;5118959;28;20243;-88
2023/02/19 02:12:11;;;;;;;2.93;2.40;;;8.80;97.30;;;;;;5141317;28;20378;-88
2023/02/19 02:14:41;;;;;;;1.83;1.67;;;8.80;97.30;;;;;;5118236;28;20221;-88
2023/02/19 02:17:23;;;;;;;2.30;2.10;;;8.70;97.30;;;;;;5109329;28;20483;-88
2023/02/19 02:20:14;;;;;;;2.40;1.97;;;8.70;97.30;;;;;;5127254;28;20408;-88
2023/02/19 02:22:54;;;;;;;1.70;1.60;;;8.70;97.30;;;;;;5113478;28;20448;-87
2023/02/19 02:25:52;;;;;;;1.90;1.55;;;8.70;97.30;;;;;;5108435;28;20940;-86
2023/02/19 02:28:56;;;;;;;2.80;1.80;;;8.70;97.30;;;;;;5113281;28;20513;-88
2023/02/19 02:31:29;;;;;;;1.30;1.20;;;8.70;97.30;;;;;;5109230;28;20225;-88
2023/02/19 02:34:13;;;;;;;1.60;1.50;;;8.70;97.30;;;;;;5108400;28;20415;-88
2023/02/19 02:36:42;;;;;;;1.90;1.90;;;8.70;97.30;;;;;;5112528;28;20569;-87
2023/02/19 02:39:11;;;;;;;2.25;2.05;;;8.70;97.30;;;;;;5118738;28;20208;-89
2023/02/19 02:42:26;;;;;;;1.80;1.70;;;8.70;97.30;;;;;;5131191;27;20446;-89
2023/02/19 02:45:33;;;;;;;1.30;1.20;;;8.70;97.30;;;;;;5147675;27;20410;-90
2023/02/19 02:47:40;;;;;;;3.60;2.83;;;8.70;97.30;;;;;;5146149;27;20236;-89
2023/02/19 02:50:08;;;;;;;2.05;1.90;;;8.70;97.30;;;;;;5132724;27;20786;-89
2023/02/19 02:55:20;;;;;;;1.00;0.90;;;8.70;97.30;;;;;;5132521;27;20409;-88
2023/02/19 02:57:46;;;;;;;2.47;2.27;;;8.60;97.30;;;;;;5121735;27;20449;-87
2023/02/19 03:00:13;;;;;;;1.10;1.00;;;8.70;97.30;;;;;;5122750;28;20238;-89
2023/02/19 03:02:41;;;;;;;1.10;1.00;;;8.60;97.30;;;;;;5116766;28;20203;-89
2023/02/19 03:08:08;;;;;;;1.83;1.60;;;8.70;97.30;;;;;;5153386;27;20443;-89
2023/02/19 03:19:17;;;;;;;1.20;1.10;;;8.70;97.30;;;;;;5135759;27;20203;-89
2023/02/19 03:19:30;;;;;;;1.00;0.90;;;8.70;97.30;;;;;;5157739;27;20236;-89
2023/02/19 03:22:10;;;;;;;1.73;1.00;;;8.70;97.30;;;;;;5138930;27;20212;-88
2023/02/19 03:27:36;;;;;;;0.93;0.83;;;8.60;97.30;;;;;;5151832;27;20483;-88
2023/02/19 03:30:08;;;;;;;4.20;1.73;;;8.60;97.30;;;;;;5133001;27;20221;-89
2023/02/19 03:32:43;;;;;;;1.50;1.40;;;8.60;97.30;;;;;;5136507;27;20418;-89
2023/02/19 03:35:12;;;;;;;1.00;0.90;;;8.60;97.30;;;;;;5136932;27;20683;-89
2023/02/19 03:37:44;;;;;;;0.97;0.87;;;8.60;97.30;;;;;;5155337;27;20287;-89
2023/02/19 03:40:10;;;;;;;1.00;0.90;;;8.60;97.30;;;;;;5144322;27;20433;-89
2023/02/19 03:42:59;;;;;;;1.00;0.90;;;8.60;97.30;;;;;;5138299;27;21156;-90
2023/02/19 03:45:49;;;;;;;1.75;1.65;;;8.60;97.30;;;;;;5129824;27;20447;-89
2023/02/19 03:48:23;;;;;;;0.80;0.75;;;8.60;97.30;;;;;;5130234;27;20461;-89
2023/02/19 03:51:01;;;;;;;1.10;1.00;;;8.60;97.30;;;;;;5153011;27;20464;-88
2023/02/19 03:53:42;;;;;;;1.00;0.90;;;8.60;97.30;;;;;;5131364;27;20331;-89
2023/02/19 03:56:29;;;;;;;1.00;0.90;;;8.60;97.30;;;;;;5130489;28;20458;-89
2023/02/19 03:59:09;;;;;;;0.90;0.80;;;8.70;97.30;;;;;;5127615;27;20468;-88
2023/02/19 04:01:54;;;;;;;1.00;0.90;;;8.70;97.30;;;;;;5127784;27;20458;-89
2023/02/19 04:04:32;;;;;;;1.67;1.43;;;8.70;97.30;;;;;;5119474;28;20249;-88
2023/02/19 04:06:58;;;;;;;0.90;0.80;;;8.70;97.30;;;;;;5127671;27;20449;-87
2023/02/19 04:09:29;;;;;;;1.05;1.05;;;8.70;97.30;;;;;;5137715;27;20231;-88
2023/02/19 04:11:55;;;;;;;1.00;0.90;;;8.70;97.30;;;;;;5132039;27;20187;-87
2023/02/19 04:14:35;;;;;;;1.10;1.00;;;8.70;97.30;;;;;;5152254;27;20406;-86
2023/02/19 04:17:05;;;;;;;1.00;0.90;;;8.70;97.30;;;;;;5121285;27;20527;-89
2023/02/19 04:19:35;;;;;;;1.07;0.97;;;8.70;97.30;;;;;;5115128;27;20275;-88
2023/02/19 04:22:01;;;;;;;1.00;0.90;;;8.80;97.30;;;;;;5117542;27;20201;-89
2023/02/19 04:24:48;;;;;;;10.95;1.50;;;8.80;97.30;;;;;;5129984;27;20201;-88
2023/02/19 04:27:15;;;;;;;0.90;0.80;;;8.70;97.30;;;;;;5127888;27;20381;-88
2023/02/19 04:29:40;;;;;;;1.43;1.33;;;8.70;97.30;;;;;;5117962;27;20428;-88
2023/02/19 04:32:06;;;;;;;1.00;0.90;;;8.70;97.30;;;;;;5114686;27;20662;-87
2023/02/19 04:34:32;;;;;;;1.00;0.90;;;8.70;97.30;;;;;;5099489;28;20608;-88
2023/02/19 04:36:57;;;;;;;2.43;1.27;;;8.70;97.30;;;;;;5120736;27;20208;-87
2023/02/19 04:39:23;;;;;;;0.97;0.87;;;8.70;97.30;;;;;;5117392;27;20195;-88
2023/02/19 04:41:48;;;;;;;1.77;1.07;;;8.70;97.30;;;;;;5118127;27;20186;-89
2023/02/19 04:44:14;;;;;;;0.90;0.80;;;8.70;97.30;;;;;;5117620;27;20261;-88
2023/02/19 04:46:40;;;;;;;1.00;0.90;;;8.80;97.30;;;;;;5114904;28;20193;-89
2023/02/19 04:49:05;;;;;;;1.00;0.90;;;8.70;97.30;;;;;;5117359;27;20584;-89
2023/02/19 04:51:31;;;;;;;0.90;0.90;;;8.70;97.30;;;;;;5120707;27;20205;-88
2023/02/19 04:53:57;;;;;;;0.90;0.80;;;8.70;97.30;;;;;;5133373;27;20193;-89
2023/02/19 04:56:22;;;;;;;1.93;1.53;;;8.70;97.30;;;;;;5120535;27;20183;-88
2023/02/19 04:58:48;;;;;;;1.00;0.90;;;8.70;97.30;;;;;;5119246;27;20307;-88
2023/02/19 05:01:13;;;;;;;0.90;0.80;;;8.70;97.30;;;;;;5130242;27;20639;-88
2023/02/19 05:03:40;;;;;;;0.90;0.80;;;8.70;97.30;;;;;;5118441;27;20238;-88
2023/02/19 05:06:08;;;;;;;0.90;0.80;;;8.70;97.30;;;;;;5129002;27;20279;-88
2023/02/19 05:08:34;;;;;;;1.00;0.90;;;8.60;97.30;;;;;;5129497;27;20586;-88
2023/02/19 05:11:01;;;;;;;0.90;0.80;;;8.60;97.30;;;;;;5137460;27;20422;-88
2023/02/19 05:13:27;;;;;;;0.90;0.80;;;8.60;97.30;;;;;;5118724;27;20274;-88
2023/02/19 05:16:05;;;;;;;0.93;0.83;;;8.60;97.30;;;;;;5117311;27;20979;-88
2023/02/19 05:18:32;;;;;;;0.90;0.80;;;8.60;97.30;;;;;;5106414;28;20440;-88
2023/02/19 05:20:58;;;;;;;0.97;0.87;;;8.60;97.30;;;;;;5116385;28;20449;-87
2023/02/19 05:23:24;;;;;;;0.80;0.70;;;8.60;97.30;;;;;;5119998;28;20216;-88
2023/02/19 05:25:50;;;;;;;1.00;0.90;;;8.60;97.30;;;;;;5118528;28;20441;-86
2023/02/19 05:28:16;;;;;;;1.00;0.90;;;8.60;97.30;;;;;;5107256;28;20631;-89
2023/02/19 05:30:47;;;;;;;1.00;0.90;;;8.70;97.30;;;;;;5107456;28;20233;-89
2023/02/19 05:33:14;;;;;;;0.80;0.70;;;8.70;97.30;;;;;;5114670;28;20217;-88
2023/02/19 05:35:49;;;;;;;1.37;1.27;;;8.70;97.30;;;;;;5105065;28;20542;-88
2023/02/19 05:38:15;;;;;;;8.67;2.10;;;8.70;97.30;;;;;;5116700;28;20449;-89
2023/02/19 05:40:41;;;;;;;1.93;1.47;;;8.70;97.30;;;;;;5106628;28;20493;-88
2023/02/19 05:43:07;;;;;;;3.70;1.70;;;8.70;97.30;;;;;;5108416;28;20209;-88
2023/02/19 05:45:33;;;;;;;0.97;0.87;;;8.70;97.30;;;;;;5114391;28;20310;-87
2023/02/19 05:47:59;;;;;;;0.90;0.80;;;8.70;97.30;;;;;;5115376;28;20530;-88
2023/02/19 05:50:25;;;;;;;0.90;0.80;;;8.70;97.30;;;;;;5122150;28;20398;-88
2023/02/19 05:52:50;;;;;;;4.80;3.27;;;8.60;97.30;;;;;;5122649;28;20679;-88
2023/02/19 05:55:16;;;;;;;1.65;1.00;;;8.60;97.30;;;;;;5121765;28;20422;-87
2023/02/19 05:57:44;;;;;;;1.13;1.03;;;8.70;97.30;;;;;;5116691;28;20253;-88
2023/02/19 06:00:12;;;;;;;1.57;1.47;;;8.60;97.30;;;;;;5126223;28;20181;-87
2023/02/19 06:02:37;;;;;;;2.03;1.10;;;8.70;97.30;;;;;;5118772;28;20436;-88
2023/02/19 06:05:04;;;;;;;1.30;1.00;;;8.70;97.30;;;;;;5117404;28;20197;-88
2023/02/19 06:07:30;;;;;;;1.43;1.23;;;8.70;97.30;;;;;;5120531;28;21007;-88
2023/02/19 06:09:56;;;;;;;1.50;1.40;;;8.70;97.30;;;;;;5119140;28;20785;-88
2023/02/19 06:12:22;;;;;;;1.00;0.90;;;8.70;97.30;;;;;;5112908;28;20239;-88
2023/02/19 06:14:48;;;;;;;7.37;1.50;;;8.70;97.30;;;;;;5120875;28;20311;-87
2023/02/19 06:17:13;;;;;;;1.00;0.90;;;8.70;97.30;;;;;;5122693;27;20236;-87
2023/02/19 06:19:39;;;;;;;1.10;1.00;;;8.70;97.30;;;;;;5122814;27;20733;-88
2023/02/19 06:22:05;;;;;;;1.10;1.00;;;8.70;97.30;;;;;;5119840;27;20422;-88
2023/02/19 06:24:30;;;;;;;2.40;1.10;;;8.70;97.30;;;;;;5132710;27;20180;-89
2023/02/19 06:26:56;;;;;;;1.00;0.90;;;8.70;97.30;;;;;;5120839;27;20716;-86
2023/02/19 06:29:21;;;;;;;0.97;0.87;;;8.70;97.30;;;;;;5100916;28;20174;-87
2023/02/19 06:31:47;;;;;;;1.00;0.90;;;8.70;97.30;;;;;;5112532;27;20183;-87
2023/02/19 06:34:12;;;;;;;2.17;2.00;;;8.70;97.30;;;;;;5121143;27;20187;-89
2023/02/19 06:36:38;;;;;;;1.47;1.13;;;8.70;97.30;;;;;;5116495;28;20542;-89
2023/02/19 06:39:04;;;;;;;0.90;0.90;;;8.50;97.30;;;;;;5108055;27;20189;-88
2023/02/19 06:41:30;;;;;;;1.43;1.33;;;8.30;97.30;;;;;;5113673;27;20231;-89
2023/02/19 06:43:56;;;;;;;0.90;0.80;;;8.10;97.30;;;;;;5120237;27;20410;-88
2023/02/19 06:46:22;;;;;;;1.17;1.07;;;8.00;97.30;;;;;;5121727;27;20482;-88
2023/02/19 06:48:47;;;;;;;1.30;1.20;;;7.90;97.30;;;;;;5118954;28;20197;-89
2023/02/19 06:51:22;;;;;;;1.00;0.90;;;7.70;97.30;;;;;;5101454;28;20177;-87
2023/02/19 06:53:48;;;;;;;1.80;1.30;;;7.40;97.30;;;;;;5129222;27;20256;-88
2023/02/19 06:56:21;;;;;;;0.90;0.80;;;7.30;97.30;;;;;;5111284;28;20282;-88
2023/02/19 06:58:47;;;;;;;1.00;0.90;;;7.20;97.30;;;;;;5118200;27;20214;-88
2023/02/19 07:01:12;;;;;;;0.95;0.85;;;7.10;97.30;;;;;;5123088;27;20238;-88
2023/02/19 07:03:38;;;;;;;2.10;1.95;;;6.90;97.30;;;;;;5124500;27;20655;-89
2023/02/19 07:06:04;;;;;;;1.23;1.13;;;6.80;97.30;;;;;;5141424;27;20190;-88
2023/02/19 07:08:29;;;;;;;1.10;1.00;;;6.70;97.30;;;;;;5124501;27;20174;-88
2023/02/19 07:10:56;;;;;;;1.00;0.90;;;6.60;97.30;;;;;;5123639;27;20196;-88
2023/02/19 07:13:23;;;;;;;1.00;0.90;;;6.50;97.30;;;;;;5115599;27;20181;-89
2023/02/19 07:15:49;;;;;;;1.00;0.90;;;6.40;97.30;;;;;;5132707;27;20967;-90
2023/02/19 07:18:14;;;;;;;0.90;0.80;;;6.30;97.30;;;;;;5141099;27;20359;-88
2023/02/19 07:20:40;;;;;;;1.10;1.00;;;6.30;97.30;;;;;;5120296;27;20191;-89
2023/02/19 07:23:05;;;;;;;1.30;1.20;;;6.20;97.30;;;;;;5114836;28;20178;-88
2023/02/19 07:25:31;;;;;;;1.70;1.40;;;6.20;97.30;;;;;;5107139;28;20699;-84
2023/02/19 07:27:57;;;;;;;1.10;1.00;;;6.10;97.30;;;;;;5110405;28;20202;-86
2023/02/19 07:30:22;;;;;;;;;;;6.10;97.30;;;;;;5117549;27;20190;-87
2023/02/19 07:32:47;;;;;;;;;;;6.10;97.30;;;;;;5113956;28;20175;-86
2023/02/19 07:35:13;;;;;;;;;;;6.10;97.30;;;;;;5114947;27;20318;-87
2023/02/19 07:37:40;;;;;;;1.57;1.47;;;6.10;97.30;;;;;;5116862;27;20185;-85
2023/02/19 07:40:06;;;;;;;1.20;1.10;;;6.10;97.30;;;;;;5111461;27;20165;-86
2023/02/19 07:42:31;;;;;;;1.63;1.53;;;6.10;97.30;;;;;;5116505;27;20501;-85
2023/02/19 07:44:57;;;;;;;1.40;1.30;;;6.10;97.30;;;;;;5116150;27;20551;-86
2023/02/19 07:47:23;;;;;;;1.20;1.10;;;6.10;97.30;;;;;;5117041;27;20279;-87
2023/02/19 07:49:48;;;;;;;1.00;0.90;;;6.00;97.30;;;;;;5117112;27;20406;-86
2023/02/19 07:52:14;;;;;;;1.15;1.05;;;6.00;97.30;;;;;;5116868;27;20178;-86
2023/02/19 07:54:39;;;;;;;1.00;0.90;;;5.90;97.30;;;;;;5116598;27;20655;-86
2023/02/19 07:57:04;;;;;;;1.30;1.20;;;5.90;97.30;;;;;;5115704;27;20200;-87
2023/02/19 07:59:30;;;;;;;1.65;1.55;;;5.90;97.30;;;;;;5109204;27;20701;-87
2023/02/19 08:04:40;;;;;;;1.35;1.25;;;5.80;97.30;;;;;;5134501;27;20190;-86
2023/02/19 08:07:05;;;;;;;1.40;1.30;;;5.70;97.30;;;;;;5116413;27;20426;-87
2023/02/19 08:09:32;;;;;;;1.40;1.30;;;5.70;97.30;;;;;;5140875;27;20174;-88
2023/02/19 08:14:41;;;;;;;1.20;1.10;;;5.70;97.30;;;;;;5134128;27;20385;-85
2023/02/19 08:17:07;;;;;;;1.35;1.25;;;5.60;97.30;;;;;;5116050;27;20493;-87
2023/02/19 08:19:32;;;;;;;1.60;1.50;;;5.60;97.30;;;;;;5115119;27;20154;-87
2023/02/19 08:21:58;;;;;;;1.25;1.15;;;5.60;97.30;;;;;;5112621;27;20188;-86
2023/02/19 08:24:23;;;;;;;1.60;1.50;;;5.60;97.30;;;;;;5115706;27;20181;-86
2023/02/19 08:26:49;;;;;;;1.00;0.90;;;5.50;97.30;;;;;;5116027;27;20377;-86
2023/02/19 08:29:15;;;;;;;1.20;1.10;;;5.40;97.30;;;;;;5115921;27;20198;-86
2023/02/19 08:31:40;;;;;;;0.90;0.80;;;5.40;97.30;;;;;;5115908;27;20392;-85
2023/02/19 08:34:06;;;;;;;1.23;1.13;;;5.30;97.30;;;;;;5116022;27;20188;-86
2023/02/19 08:36:31;;;;;;;1.10;1.00;;;5.20;97.30;;;;;;5112606;28;20190;-87
2023/02/19 08:38:57;;;;;;;1.00;0.90;;;5.10;97.30;;;;;;5099327;28;20205;-86
2023/02/19 08:41:22;;;;;;;;;;;5.10;97.30;;;;;;5107565;27;20171;-84
2023/02/19 08:43:48;;;;;;;;;;;5.10;97.30;;;;;;5116643;27;20188;-86
2023/02/19 08:46:13;;;;;;;;;;;5.00;97.30;;;;;;5116046;27;20216;-85
2023/02/19 08:48:39;;;;;;;;;;;4.90;97.30;;;;;;5116412;27;20248;-86
2023/02/19 08:51:07;;;;;;;;;;;4.90;97.30;;;;;;5115971;27;20184;-86
2023/02/19 08:53:33;;;;;;;;;;;4.90;97.30;;;;;;5112573;28;20178;-85
2023/02/19 08:56:04;;;;;;;1.10;1.00;;;4.90;97.30;;;;;;5108420;28;20050;-86
2023/02/19 08:58:31;;;;;;;;;;;5.00;97.30;;;;;;5096219;28;20517;-87
2023/02/19 09:00:57;;;;;;;1.10;1.00;;;5.00;97.30;;;;;;5095930;28;20466;-86
2023/02/19 09:03:22;;;;;;;1.00;0.90;;;5.10;97.30;;;;;;5131201;27;20434;-86
2023/02/19 09:05:48;;;;;;;;;;;5.10;97.30;;;;;;5115813;27;20939;-87
2023/02/19 09:08:14;;;;;;;1.03;0.93;;;5.10;97.30;;;;;;5131629;27;20200;-87
2023/02/19 09:10:40;;;;;;;1.00;0.90;;;5.20;97.30;;;;;;5115948;27;20164;-86
2023/02/19 09:13:05;;;;;;;1.10;1.00;;;5.20;97.30;;;;;;5115775;27;20956;-87
2023/02/19 09:15:32;;;;;;;1.00;0.90;;;5.30;97.30;;;;;;5134215;27;20173;-85
2023/02/19 09:17:58;;;;;;;1.00;0.90;;;5.20;97.30;;;;;;5120270;27;20250;-86
2023/02/19 09:20:23;;;;;;;1.00;0.90;;;5.10;97.30;;;;;;5127386;28;20402;-86
2023/02/19 09:22:48;;;;;;;1.73;1.63;;;5.10;97.30;;;;;;5126500;28;20316;-84
2023/02/19 09:25:14;;;;;;;1.00;0.90;;;5.20;97.30;;;;;;5119338;27;20172;-85
2023/02/19 09:27:40;;;;;;;1.10;1.00;;;5.20;97.30;;;;;;5128331;28;20195;-87
2023/02/19 09:30:06;;;;;;;1.30;1.20;;;5.20;97.30;;;;;;5127719;28;20278;-86
2023/02/19 09:32:32;;;;;;;1.20;1.10;;;5.20;97.30;;;;;;5126270;28;20171;-86
2023/02/19 09:34:58;;;;;;;3.53;1.30;;;5.20;97.30;;;;;;5127170;28;20467;-86
2023/02/19 09:37:27;;;;;;;1.00;0.90;;;5.30;97.30;;;;;;5125303;28;20476;-86
2023/02/19 09:39:53;;;;;;;1.00;0.90;;;5.50;97.30;;;;;;5126229;28;20208;-85
2023/02/19 09:42:23;;;;;;;1.00;0.90;;;5.50;97.30;;;;;;5129536;28;20412;-86
2023/02/19 09:44:52;;;;;;;3.03;1.77;;;5.60;97.30;;;;;;5124557;28;20903;-85
2023/02/19 09:47:23;;;;;;;1.20;1.10;;;5.60;97.30;;;;;;5127074;28;20442;-86
2023/02/19 09:49:54;;;;;;;1.10;1.00;;;5.60;97.30;;;;;;5144147;27;20428;-85
2023/02/19 09:52:48;;;;;;;1.10;1.00;;;5.60;97.30;;;;;;5128905;27;20429;-86
2023/02/19 09:55:25;;;;;;;1.80;1.70;;;5.60;97.30;;;;;;5127835;27;20446;-86
2023/02/19 09:57:52;;;;;;;1.20;1.10;;;5.80;97.30;;;;;;5149215;27;20540;-84
2023/02/19 10:00:24;;;;;;;1.25;1.15;;;5.90;97.30;;;;;;5149352;27;20405;-86
2023/02/19 10:02:58;;;;;;;1.30;1.20;;;5.90;97.30;;;;;;5128774;27;20473;-86
2023/02/19 10:05:24;;;;;;;3.00;1.10;;;5.90;97.30;;;;;;5131212;27;20410;-86
2023/02/19 10:07:52;;;;;;;0.90;0.90;;;5.90;97.30;;;;;;5144941;27;20392;-86
2023/02/19 10:10:29;;;;;;;1.10;1.00;;;5.80;97.30;;;;;;5141375;27;20245;-86
2023/02/19 10:13:01;;;;;;;1.43;1.33;;;5.80;97.30;;;;;;5126318;27;20478;-86
2023/02/19 10:15:45;;;;;;;1.00;1.00;;;5.80;97.30;;;;;;5123413;27;20439;-86
2023/02/19 10:18:10;;;;;;;1.10;1.00;;;5.80;97.30;;;;;;5147397;27;20491;-86
2023/02/19 10:20:36;;;;;;;1.20;1.10;;;5.80;97.30;;;;;;5148670;27;20197;-86
2023/02/19 10:23:04;;;;;;;1.00;0.90;;;5.80;97.30;;;;;;5119195;27;20235;-86
2023/02/19 10:25:32;;;;;;;0.90;0.80;;;5.80;97.30;;;;;;5121680;27;20199;-86
2023/02/19 10:28:01;;;;;;;1.10;1.00;;;5.80;97.30;;;;;;5115350;28;20482;-86
2023/02/19 10:30:33;;;;;;;1.00;0.90;;;5.80;97.30;;;;;;5136052;27;20896;-86
2023/02/19 10:33:11;;;;;;;1.20;1.10;;;5.80;97.30;;;;;;5119404;27;20421;-86
2023/02/19 10:35:57;;;;;;;1.95;1.85;;;5.80;97.30;;;;;;5130007;27;20425;-86
2023/02/19 10:38:46;;;;;;;0.93;0.83;;;5.90;97.30;;;;;;5119077;27;20491;-86
2023/02/19 10:41:19;;;;;;;1.55;1.45;;;5.90;97.30;;;;;;5137525;27;20492;-85
2023/02/19 10:44:15;;;;;;;1.20;1.10;;;5.80;97.30;;;;;;5119363;27;20400;-86
2023/02/19 10:46:46;;;;;;;1.00;0.90;;;5.90;97.30;;;;;;5124801;27;20414;-87
2023/02/19 10:49:31;;;;;;;1.90;1.80;;;5.90;97.30;;;;;;5123435;27;20406;-86
2023/02/19 10:52:01;;;;;;;1.00;0.90;;;6.00;97.30;;;;;;5121518;27;20422;-86
2023/02/19 10:54:31;;;;;;;1.30;1.20;;;6.10;97.30;;;;;;5120064;27;20901;-86
2023/02/19 10:57:24;;;;;;;2.50;1.63;;;6.20;97.30;;;;;;5137480;27;20467;-86
2023/02/19 11:00:00;;;;;;;1.30;1.20;;;6.20;97.30;;;;;;5118033;27;20223;-86
2023/02/19 11:02:27;;;;;;;1.00;0.90;;;6.20;97.30;;;;;;5116357;27;20466;-85
2023/02/19 11:05:08;;;;;;;1.00;0.90;;;6.20;97.30;;;;;;5116710;27;20582;-85
2023/02/19 11:07:36;;;;;;;1.10;1.00;;;6.10;97.30;;;;;;5126631;27;20494;-85
2023/02/19 11:10:03;;;;;;;1.50;1.40;;;6.10;97.30;;;;;;5116158;27;20422;-85
2023/02/19 11:12:33;;;;;;;1.45;1.35;;;6.00;97.30;;;;;;5115830;27;20489;-85
2023/02/19 11:15:17;;;;;;;1.00;0.90;;;6.00;97.30;;;;;;5115982;27;20429;-86
2023/02/19 11:17:42;;;;;;;1.10;1.00;;;6.00;97.30;;;;;;5108443;27;20999;-86
2023/02/19 11:20:17;;;;;;;0.90;0.80;;;6.20;97.30;;;;;;5115762;27;20426;-84
2023/02/19 11:22:45;;;;;;;1.70;1.10;;;6.30;97.30;;;;;;5133957;27;20176;-86
2023/02/19 11:25:14;;;;;;;1.00;0.90;;;6.30;97.30;;;;;;5115456;27;20809;-85
2023/02/19 11:28:05;;;;;;;1.27;1.10;;;6.30;97.30;;;;;;5128928;27;20476;-86
2023/02/19 11:30:32;;;;;;;1.00;0.90;;;6.40;97.30;;;;;;5133920;27;20505;-85
2023/02/19 11:33:18;;;;;;;1.00;0.90;;;6.50;97.30;;;;;;5115268;27;20461;-85
2023/02/19 11:35:45;;;;;;;2.65;2.20;;;6.60;97.30;;;;;;5108751;27;20517;-86
2023/02/19 11:38:13;;;;;;;1.00;0.90;;;6.70;97.30;;;;;;5115586;27;20717;-86
2023/02/19 11:41:17;;;;;;;1.20;1.10;;;6.60;97.30;;;;;;5115291;27;20592;-86
2023/02/19 11:44:02;;;;;;;1.10;1.00;;;6.60;97.30;;;;;;5125904;27;20425;-86
2023/02/19 11:47:01;;;;;;;0.97;0.87;;;6.70;97.30;;;;;;5113928;27;20441;-87
2023/02/19 11:49:44;;;;;;;1.00;0.90;;;6.70;97.30;;;;;;5114948;27;20421;-85
2023/02/19 11:52:20;;;;;;;1.00;0.90;;;6.50;97.30;;;;;;5133549;27;20406;-86
2023/02/19 11:54:50;;;;;;;1.20;1.10;;;6.40;97.30;;;;;;5115046;27;20421;-86
2023/02/19 11:57:40;;;;;;;1.67;1.57;;;6.40;97.30;;;;;;5112487;27;20990;-85
2023/02/19 12:00:24;;;;;;;2.30;1.80;;;6.40;97.30;;;;;;5133490;27;20403;-86
2023/02/19 12:03:14;;;;;;;1.30;1.30;;;6.50;97.30;;;;;;5108834;27;20452;-86
2023/02/19 12:05:53;;;;;;;4.00;1.50;;;6.50;97.30;;;;;;5133568;27;20495;-86
2023/02/19 12:08:28;;;;;;;1.40;1.30;;;6.60;97.30;;;;;;5114920;27;20945;-86
2023/02/19 12:10:56;;;;;;;5.23;2.53;;;6.70;97.30;;;;;;5114764;27;20516;-86
2023/02/19 12:13:35;;;;;;;1.70;1.50;;;6.80;97.30;;;;;;5114761;27;20403;-86
2023/02/19 12:16:09;;;;;;;1.90;1.80;;;6.90;97.30;;;;;;5115303;27;20458;-86
2023/02/19 12:18:43;;;;;;;10.90;2.90;;;6.90;97.30;;;;;;5106545;27;20453;-85
2023/02/19 12:21:36;;;;;;;1.47;1.43;;;7.00;97.30;;;;;;5115046;27;20409;-86
2023/02/19 12:24:10;;;;;;;1.30;1.20;;;7.10;97.30;;;;;;5100031;27;20906;-86
2023/02/19 12:27:02;;;;;;;1.70;1.60;;;7.20;97.30;;;;;;5106244;27;20445;-86
2023/02/19 12:30:00;;;;;;;1.27;1.17;;;7.50;97.30;;;;;;5114847;27;20414;-85
2023/02/19 12:32:46;;;;;;;1.57;1.47;;;7.80;97.30;;;;;;5114313;27;20444;-86
2023/02/19 12:35:43;;;;;;;1.30;1.20;;;8.00;97.30;;;;;;5115259;27;20414;-85
2023/02/19 12:38:37;;;;;;;2.80;1.90;;;8.00;97.30;;;;;;5114201;27;20464;-86
2023/02/19 12:41:15;;;;;;;7.63;1.37;;;7.80;97.20;;;;;;5110275;27;20791;-86
2023/02/19 12:43:50;;;;;;;1.50;1.40;;;7.70;97.30;;;;;;5106604;27;20599;-87
2023/02/19 12:46:37;;;;;;;1.00;0.90;;;7.50;96.70;;;;;;5114326;27;20461;-86
2023/02/19 12:49:06;;;;;;;6.37;1.10;;;7.50;97.30;;;;;;5114298;27;20434;-86
2023/02/19 12:51:41;;;;;;;1.20;1.10;;;7.90;97.30;;;;;;5113709;27;20422;-86
2023/02/19 12:54:20;;;;;;;1.20;1.10;;;8.20;97.30;;;;;;5115281;27;20280;-86
2023/02/19 12:56:53;;;;;;;7.20;1.83;;;8.40;94.30;;;;;;5126066;27;20445;-86
2023/02/19 12:59:35;;;;;;;0.93;0.83;;;8.60;94.10;;;;;;5133185;27;20474;-85
2023/02/19 13:02:14;;;;;;;2.05;1.40;;;8.90;94.60;;;;;;5114579;27;20424;-85
2023/02/19 13:04:58;;;;;;;1.10;1.00;;;9.20;94.60;;;;;;5106398;27;20420;-85
2023/02/19 13:07:34;;;;;;;1.20;1.10;;;9.20;92.60;;;;;;5113811;27;20463;-86
2023/02/19 13:10:09;;;;;;;1.40;1.30;;;9.20;92.80;;;;;;5131991;27;20453;-85
2023/02/19 13:12:39;;;;;;;1.07;0.97;;;9.10;93.30;;;;;;5113835;27;20421;-85
2023/02/19 13:15:16;;;;;;;0.97;0.87;;;9.30;92.30;;;;;;5114104;27;20609;-86
2023/02/19 13:17:47;;;;;;;1.00;0.90;;;9.40;91.60;;;;;;5106176;28;20491;-85
2023/02/19 13:20:17;;;;;;;1.43;1.33;;;9.60;91.30;;;;;;5113848;27;20225;-85
2023/02/19 13:26:01;;;;;;;1.27;1.17;;;9.70;91.40;;;;;;5124894;27;20418;-86
2023/02/19 13:28:41;;;;;;;1.10;1.00;;;9.90;89.50;;;;;;5114141;28;20897;-85
2023/02/19 13:31:51;;;;;;;0.80;0.70;;;9.60;90.60;;;;;;5132132;27;20420;-86
2023/02/19 13:34:42;;;;;;;1.63;1.30;;;9.30;90.60;;;;;;5102777;28;20820;-86
2023/02/19 13:37:10;;;;;;;1.00;0.90;;;9.20;91.40;;;;;;5131999;28;20425;-85
2023/02/19 13:39:35;;;;;;;1.73;1.10;;;9.40;91.50;;;;;;5113354;28;20219;-86
2023/02/19 13:42:01;;;;;;;1.00;0.90;;;9.70;90.20;;;;;;5114247;28;20418;-85
2023/02/19 13:44:31;;;;;;;1.00;0.90;;;9.80;90.30;;;;;;5113972;28;20654;-85
2023/02/19 13:46:58;;;;;;;0.90;0.80;;;9.90;90.40;;;;;;5113491;28;20190;-85